sensor_id;sensor_type;location;lat;lon;timestamp;P1;durP1;ratioP1;P2;durP2;ratioP2
68923;SDS011;55961;52.156;20.942;2023-07-22T00:01:01;9.27;;;6.75;;
68923;SDS011;55961;52.156;20.942;2023-07-22T00:03:34;10.90;;;6.93;;
68923;SDS011;55961;52.156;20.942;2023-07-22T00:08:33;8.57;;;6.50;;
68923;SDS011;55961;52.156;20.942;2023-07-22T00:11:00;10.85;;;7.45;;
68923;SDS011;55961;52.156;20.942;2023-07-22T00:13:26;10.98;;;7.07;;
68923;SDS011;55961;52.156;20.942;2023-07-22T00:15:53;10.63;;;6.77;;
68923;SDS011;55961;52.156;20.942;2023-07-22T00:18:19;9.85;;;7.45;;
68923;SDS011;55961;52.156;20.942;2023-07-22T00:20:45;9.02;;;6.85;;
68923;SDS011;55961;52.156;20.942;2023-07-22T00:23:11;10.60;;;6.85;;
68923;SDS011;55961;52.156;20.942;2023-07-22T00:25:37;13.27;;;7.60;;
68923;SDS011;55961;52.156;20.942;2023-07-22T00:28:03;7.70;;;6.32;;
68923;SDS011;55961;52.156;20.942;2023-07-22T00:30:29;9.77;;;7.20;;
68923;SDS011;55961;52.156;20.942;2023-07-22T00:32:55;9.37;;;6.90;;
68923;SDS011;55961;52.156;20.942;2023-07-22T00:35:21;11.07;;;7.33;;
68923;SDS011;55961;52.156;20.942;2023-07-22T00:37:47;10.10;;;7.38;;
68923;SDS011;55961;52.156;20.942;2023-07-22T00:40:13;9.68;;;7.00;;
68923;SDS011;55961;52.156;20.942;2023-07-22T00:42:39;9.13;;;7.43;;
68923;SDS011;55961;52.156;20.942;2023-07-22T00:45:06;9.50;;;7.33;;
68923;SDS011;55961;52.156;20.942;2023-07-22T00:47:33;8.73;;;7.18;;
68923;SDS011;55961;52.156;20.942;2023-07-22T00:50:00;8.48;;;6.65;;
68923;SDS011;55961;52.156;20.942;2023-07-22T00:52:28;9.90;;;7.45;;
68923;SDS011;55961;52.156;20.942;2023-07-22T00:54:54;10.60;;;7.03;;
68923;SDS011;55961;52.156;20.942;2023-07-22T00:57:20;9.37;;;7.50;;
68923;SDS011;55961;52.156;20.942;2023-07-22T00:59:47;13.60;;;7.93;;
68923;SDS011;55961;52.156;20.942;2023-07-22T01:02:14;9.40;;;7.70;;
68923;SDS011;55961;52.156;20.942;2023-07-22T01:04:40;9.73;;;7.50;;
68923;SDS011;55961;52.156;20.942;2023-07-22T01:07:06;8.17;;;6.97;;
68923;SDS011;55961;52.156;20.942;2023-07-22T01:09:36;9.30;;;7.00;;
68923;SDS011;55961;52.156;20.942;2023-07-22T01:12:03;10.30;;;7.72;;
68923;SDS011;55961;52.156;20.942;2023-07-22T01:14:34;11.57;;;6.70;;
68923;SDS011;55961;52.156;20.942;2023-07-22T01:17:02;8.85;;;6.85;;
68923;SDS011;55961;52.156;20.942;2023-07-22T01:19:30;8.40;;;6.87;;
68923;SDS011;55961;52.156;20.942;2023-07-22T01:22:00;9.93;;;7.25;;
68923;SDS011;55961;52.156;20.942;2023-07-22T01:24:28;9.68;;;7.30;;
68923;SDS011;55961;52.156;20.942;2023-07-22T01:26:54;8.85;;;6.70;;
68923;SDS011;55961;52.156;20.942;2023-07-22T01:29:21;11.52;;;7.15;;
68923;SDS011;55961;52.156;20.942;2023-07-22T01:31:48;8.87;;;7.10;;
68923;SDS011;55961;52.156;20.942;2023-07-22T01:34:16;9.95;;;6.95;;
68923;SDS011;55961;52.156;20.942;2023-07-22T01:36:42;12.18;;;7.47;;
68923;SDS011;55961;52.156;20.942;2023-07-22T01:39:09;9.95;;;7.45;;
68923;SDS011;55961;52.156;20.942;2023-07-22T01:41:36;12.07;;;7.78;;
68923;SDS011;55961;52.156;20.942;2023-07-22T01:44:03;13.43;;;8.07;;
68923;SDS011;55961;52.156;20.942;2023-07-22T01:46:29;11.40;;;8.55;;
68923;SDS011;55961;52.156;20.942;2023-07-22T01:48:55;10.25;;;7.97;;
68923;SDS011;55961;52.156;20.942;2023-07-22T01:51:21;12.40;;;8.38;;
68923;SDS011;55961;52.156;20.942;2023-07-22T01:53:47;9.95;;;8.52;;
68923;SDS011;55961;52.156;20.942;2023-07-22T01:56:14;9.57;;;8.20;;
68923;SDS011;55961;52.156;20.942;2023-07-22T01:58:42;11.70;;;8.65;;
68923;SDS011;55961;52.156;20.942;2023-07-22T02:01:08;10.18;;;7.80;;
68923;SDS011;55961;52.156;20.942;2023-07-22T02:03:34;12.70;;;8.63;;
68923;SDS011;55961;52.156;20.942;2023-07-22T02:06:03;10.93;;;8.50;;
68923;SDS011;55961;52.156;20.942;2023-07-22T02:08:30;11.00;;;8.80;;
68923;SDS011;55961;52.156;20.942;2023-07-22T02:11:03;11.98;;;9.60;;
68923;SDS011;55961;52.156;20.942;2023-07-22T02:13:32;12.48;;;9.60;;
68923;SDS011;55961;52.156;20.942;2023-07-22T02:15:59;12.77;;;9.60;;
68923;SDS011;55961;52.156;20.942;2023-07-22T02:18:26;12.40;;;9.27;;
68923;SDS011;55961;52.156;20.942;2023-07-22T02:20:52;11.83;;;9.30;;
68923;SDS011;55961;52.156;20.942;2023-07-22T02:23:19;11.55;;;9.25;;
68923;SDS011;55961;52.156;20.942;2023-07-22T02:25:52;12.65;;;9.60;;
68923;SDS011;55961;52.156;20.942;2023-07-22T02:28:19;12.48;;;9.40;;
68923;SDS011;55961;52.156;20.942;2023-07-22T02:30:50;15.00;;;9.90;;
68923;SDS011;55961;52.156;20.942;2023-07-22T02:33:18;12.33;;;9.77;;
68923;SDS011;55961;52.156;20.942;2023-07-22T02:35:44;13.45;;;10.07;;
68923;SDS011;55961;52.156;20.942;2023-07-22T02:38:12;13.60;;;9.77;;
68923;SDS011;55961;52.156;20.942;2023-07-22T02:40:39;11.10;;;9.48;;
68923;SDS011;55961;52.156;20.942;2023-07-22T02:43:06;13.32;;;10.23;;
68923;SDS011;55961;52.156;20.942;2023-07-22T02:45:32;14.10;;;11.47;;
68923;SDS011;55961;52.156;20.942;2023-07-22T02:47:59;13.50;;;11.35;;
68923;SDS011;55961;52.156;20.942;2023-07-22T02:50:25;14.90;;;10.55;;
68923;SDS011;55961;52.156;20.942;2023-07-22T02:52:51;12.97;;;10.47;;
68923;SDS011;55961;52.156;20.942;2023-07-22T02:55:17;14.48;;;10.10;;
68923;SDS011;55961;52.156;20.942;2023-07-22T02:57:44;14.05;;;11.25;;
68923;SDS011;55961;52.156;20.942;2023-07-22T03:00:11;13.90;;;10.75;;
68923;SDS011;55961;52.156;20.942;2023-07-22T03:02:38;11.93;;;10.38;;
68923;SDS011;55961;52.156;20.942;2023-07-22T03:05:05;13.40;;;11.07;;
68923;SDS011;55961;52.156;20.942;2023-07-22T03:07:37;14.77;;;11.27;;
68923;SDS011;55961;52.156;20.942;2023-07-22T03:10:04;16.50;;;11.48;;
68923;SDS011;55961;52.156;20.942;2023-07-22T03:12:31;16.30;;;12.05;;
68923;SDS011;55961;52.156;20.942;2023-07-22T03:14:57;14.48;;;12.00;;
68923;SDS011;55961;52.156;20.942;2023-07-22T03:17:23;13.73;;;11.30;;
68923;SDS011;55961;52.156;20.942;2023-07-22T03:19:49;13.05;;;10.70;;
68923;SDS011;55961;52.156;20.942;2023-07-22T03:22:16;15.82;;;12.18;;
68923;SDS011;55961;52.156;20.942;2023-07-22T03:24:45;16.35;;;11.60;;
68923;SDS011;55961;52.156;20.942;2023-07-22T03:27:12;14.52;;;11.75;;
68923;SDS011;55961;52.156;20.942;2023-07-22T03:29:40;15.73;;;12.50;;
68923;SDS011;55961;52.156;20.942;2023-07-22T03:32:06;16.83;;;11.77;;
68923;SDS011;55961;52.156;20.942;2023-07-22T03:34:33;14.68;;;12.05;;
68923;SDS011;55961;52.156;20.942;2023-07-22T03:37:00;14.50;;;11.45;;
68923;SDS011;55961;52.156;20.942;2023-07-22T03:39:26;15.45;;;12.63;;
68923;SDS011;55961;52.156;20.942;2023-07-22T03:41:52;15.30;;;12.47;;
68923;SDS011;55961;52.156;20.942;2023-07-22T03:44:18;14.48;;;12.43;;
68923;SDS011;55961;52.156;20.942;2023-07-22T03:46:44;14.13;;;11.50;;
68923;SDS011;55961;52.156;20.942;2023-07-22T03:49:10;14.73;;;12.00;;
68923;SDS011;55961;52.156;20.942;2023-07-22T03:51:36;16.52;;;11.48;;
68923;SDS011;55961;52.156;20.942;2023-07-22T03:54:02;15.23;;;11.27;;
68923;SDS011;55961;52.156;20.942;2023-07-22T03:56:28;14.43;;;9.98;;
68923;SDS011;55961;52.156;20.942;2023-07-22T03:58:54;13.97;;;10.60;;
68923;SDS011;55961;52.156;20.942;2023-07-22T04:01:20;13.25;;;10.40;;
68923;SDS011;55961;52.156;20.942;2023-07-22T04:03:46;12.57;;;10.02;;
68923;SDS011;55961;52.156;20.942;2023-07-22T04:06:12;11.57;;;9.70;;
68923;SDS011;55961;52.156;20.942;2023-07-22T04:08:38;12.67;;;9.60;;
68923;SDS011;55961;52.156;20.942;2023-07-22T04:11:04;13.60;;;10.27;;
68923;SDS011;55961;52.156;20.942;2023-07-22T04:13:29;12.00;;;10.30;;
68923;SDS011;55961;52.156;20.942;2023-07-22T04:15:55;14.43;;;9.88;;
68923;SDS011;55961;52.156;20.942;2023-07-22T04:18:22;11.90;;;9.73;;
68923;SDS011;55961;52.156;20.942;2023-07-22T04:20:48;11.93;;;9.57;;
68923;SDS011;55961;52.156;20.942;2023-07-22T04:23:21;12.68;;;9.30;;
68923;SDS011;55961;52.156;20.942;2023-07-22T04:25:47;13.65;;;9.50;;
68923;SDS011;55961;52.156;20.942;2023-07-22T04:28:12;11.53;;;9.07;;
68923;SDS011;55961;52.156;20.942;2023-07-22T04:30:38;14.07;;;9.73;;
68923;SDS011;55961;52.156;20.942;2023-07-22T04:33:05;11.93;;;8.48;;
68923;SDS011;55961;52.156;20.942;2023-07-22T04:35:37;12.70;;;9.38;;
68923;SDS011;55961;52.156;20.942;2023-07-22T04:38:06;11.23;;;8.68;;
68923;SDS011;55961;52.156;20.942;2023-07-22T04:40:32;12.27;;;8.73;;
68923;SDS011;55961;52.156;20.942;2023-07-22T04:46:36;11.38;;;8.23;;
68923;SDS011;55961;52.156;20.942;2023-07-22T04:49:01;10.63;;;8.43;;
68923;SDS011;55961;52.156;20.942;2023-07-22T04:51:28;9.27;;;7.20;;
68923;SDS011;55961;52.156;20.942;2023-07-22T04:53:53;10.50;;;7.38;;
68923;SDS011;55961;52.156;20.942;2023-07-22T04:56:19;9.80;;;7.05;;
68923;SDS011;55961;52.156;20.942;2023-07-22T04:58:46;11.90;;;8.03;;
68923;SDS011;55961;52.156;20.942;2023-07-22T05:01:12;10.80;;;8.38;;
68923;SDS011;55961;52.156;20.942;2023-07-22T05:03:37;12.18;;;7.57;;
68923;SDS011;55961;52.156;20.942;2023-07-22T05:06:04;10.18;;;7.38;;
68923;SDS011;55961;52.156;20.942;2023-07-22T05:08:29;11.27;;;7.60;;
68923;SDS011;55961;52.156;20.942;2023-07-22T05:10:56;9.73;;;7.32;;
68923;SDS011;55961;52.156;20.942;2023-07-22T05:13:21;10.43;;;7.10;;
68923;SDS011;55961;52.156;20.942;2023-07-22T05:15:48;9.20;;;6.37;;
68923;SDS011;55961;52.156;20.942;2023-07-22T05:18:14;11.77;;;7.82;;
68923;SDS011;55961;52.156;20.942;2023-07-22T05:20:40;13.55;;;7.80;;
68923;SDS011;55961;52.156;20.942;2023-07-22T05:23:06;9.40;;;7.47;;
68923;SDS011;55961;52.156;20.942;2023-07-22T05:25:32;11.30;;;7.50;;
68923;SDS011;55961;52.156;20.942;2023-07-22T05:27:58;11.63;;;7.65;;
68923;SDS011;55961;52.156;20.942;2023-07-22T05:30:24;10.50;;;8.02;;
68923;SDS011;55961;52.156;20.942;2023-07-22T05:32:53;11.50;;;8.20;;
68923;SDS011;55961;52.156;20.942;2023-07-22T05:35:19;12.07;;;8.60;;
68923;SDS011;55961;52.156;20.942;2023-07-22T05:37:45;12.45;;;7.93;;
68923;SDS011;55961;52.156;20.942;2023-07-22T05:40:11;11.70;;;8.25;;
68923;SDS011;55961;52.156;20.942;2023-07-22T05:42:37;11.77;;;8.40;;
68923;SDS011;55961;52.156;20.942;2023-07-22T05:45:03;11.82;;;8.23;;
68923;SDS011;55961;52.156;20.942;2023-07-22T05:47:29;13.32;;;9.05;;
68923;SDS011;55961;52.156;20.942;2023-07-22T05:49:55;11.25;;;8.77;;
68923;SDS011;55961;52.156;20.942;2023-07-22T05:52:21;12.30;;;9.20;;
68923;SDS011;55961;52.156;20.942;2023-07-22T05:54:48;13.27;;;8.53;;
68923;SDS011;55961;52.156;20.942;2023-07-22T05:57:14;14.43;;;8.85;;
68923;SDS011;55961;52.156;20.942;2023-07-22T05:59:40;10.60;;;7.95;;
68923;SDS011;55961;52.156;20.942;2023-07-22T06:02:06;11.57;;;8.37;;
68923;SDS011;55961;52.156;20.942;2023-07-22T06:04:33;10.82;;;8.40;;
68923;SDS011;55961;52.156;20.942;2023-07-22T06:06:59;13.80;;;8.00;;
68923;SDS011;55961;52.156;20.942;2023-07-22T06:09:25;10.57;;;8.60;;
68923;SDS011;55961;52.156;20.942;2023-07-22T06:11:51;10.30;;;8.30;;
68923;SDS011;55961;52.156;20.942;2023-07-22T06:14:17;11.38;;;8.45;;
68923;SDS011;55961;52.156;20.942;2023-07-22T06:16:43;10.90;;;7.83;;
68923;SDS011;55961;52.156;20.942;2023-07-22T06:19:09;13.13;;;8.20;;
68923;SDS011;55961;52.156;20.942;2023-07-22T06:21:35;10.95;;;7.82;;
68923;SDS011;55961;52.156;20.942;2023-07-22T06:24:01;11.38;;;7.57;;
68923;SDS011;55961;52.156;20.942;2023-07-22T06:26:27;10.60;;;8.17;;
68923;SDS011;55961;52.156;20.942;2023-07-22T06:28:53;10.88;;;7.95;;
68923;SDS011;55961;52.156;20.942;2023-07-22T06:31:19;11.07;;;7.80;;
68923;SDS011;55961;52.156;20.942;2023-07-22T06:33:45;9.43;;;7.45;;
68923;SDS011;55961;52.156;20.942;2023-07-22T06:36:10;11.20;;;7.77;;
68923;SDS011;55961;52.156;20.942;2023-07-22T06:38:37;9.80;;;7.20;;
68923;SDS011;55961;52.156;20.942;2023-07-22T06:41:02;10.05;;;6.35;;
68923;SDS011;55961;52.156;20.942;2023-07-22T06:43:28;8.93;;;6.15;;
68923;SDS011;55961;52.156;20.942;2023-07-22T06:45:54;8.77;;;5.50;;
68923;SDS011;55961;52.156;20.942;2023-07-22T06:48:20;7.03;;;5.00;;
68923;SDS011;55961;52.156;20.942;2023-07-22T06:50:47;8.05;;;4.90;;
68923;SDS011;55961;52.156;20.942;2023-07-22T06:53:13;7.47;;;5.43;;
68923;SDS011;55961;52.156;20.942;2023-07-22T06:55:40;7.70;;;4.63;;
68923;SDS011;55961;52.156;20.942;2023-07-22T06:58:13;6.63;;;4.70;;
68923;SDS011;55961;52.156;20.942;2023-07-22T07:00:39;6.37;;;4.17;;
68923;SDS011;55961;52.156;20.942;2023-07-22T07:03:05;6.40;;;4.47;;
68923;SDS011;55961;52.156;20.942;2023-07-22T07:05:31;5.65;;;3.63;;
68923;SDS011;55961;52.156;20.942;2023-07-22T07:07:58;6.22;;;3.72;;
68923;SDS011;55961;52.156;20.942;2023-07-22T07:10:24;5.50;;;3.42;;
68923;SDS011;55961;52.156;20.942;2023-07-22T07:12:50;4.53;;;2.73;;
68923;SDS011;55961;52.156;20.942;2023-07-22T07:15:16;7.25;;;2.90;;
68923;SDS011;55961;52.156;20.942;2023-07-22T07:17:42;5.50;;;2.67;;
68923;SDS011;55961;52.156;20.942;2023-07-22T07:20:08;5.43;;;3.00;;
68923;SDS011;55961;52.156;20.942;2023-07-22T07:22:35;5.43;;;3.03;;
68923;SDS011;55961;52.156;20.942;2023-07-22T07:25:00;5.50;;;3.28;;
68923;SDS011;55961;52.156;20.942;2023-07-22T07:27:27;6.72;;;2.88;;
68923;SDS011;55961;52.156;20.942;2023-07-22T07:29:53;7.30;;;2.23;;
68923;SDS011;55961;52.156;20.942;2023-07-22T07:32:19;5.40;;;2.80;;
68923;SDS011;55961;52.156;20.942;2023-07-22T07:34:46;6.65;;;2.83;;
68923;SDS011;55961;52.156;20.942;2023-07-22T07:37:12;4.82;;;2.67;;
68923;SDS011;55961;52.156;20.942;2023-07-22T07:39:37;6.97;;;3.17;;
68923;SDS011;55961;52.156;20.942;2023-07-22T07:42:03;4.97;;;2.72;;
68923;SDS011;55961;52.156;20.942;2023-07-22T07:44:29;5.93;;;3.10;;
68923;SDS011;55961;52.156;20.942;2023-07-22T07:46:56;6.15;;;2.50;;
68923;SDS011;55961;52.156;20.942;2023-07-22T07:49:21;6.47;;;2.67;;
68923;SDS011;55961;52.156;20.942;2023-07-22T07:51:47;5.90;;;2.78;;
68923;SDS011;55961;52.156;20.942;2023-07-22T07:54:13;6.13;;;2.70;;
68923;SDS011;55961;52.156;20.942;2023-07-22T07:56:40;5.20;;;2.60;;
68923;SDS011;55961;52.156;20.942;2023-07-22T07:59:06;5.50;;;2.40;;
68923;SDS011;55961;52.156;20.942;2023-07-22T08:01:34;4.93;;;2.60;;
68923;SDS011;55961;52.156;20.942;2023-07-22T08:04:02;4.60;;;2.55;;
68923;SDS011;55961;52.156;20.942;2023-07-22T08:06:28;4.82;;;2.47;;
68923;SDS011;55961;52.156;20.942;2023-07-22T08:08:54;4.23;;;2.50;;
68923;SDS011;55961;52.156;20.942;2023-07-22T08:11:20;3.88;;;2.35;;
68923;SDS011;55961;52.156;20.942;2023-07-22T08:13:46;5.87;;;2.60;;
68923;SDS011;55961;52.156;20.942;2023-07-22T08:16:12;5.23;;;2.20;;
68923;SDS011;55961;52.156;20.942;2023-07-22T08:18:39;5.25;;;2.20;;
68923;SDS011;55961;52.156;20.942;2023-07-22T08:21:05;5.18;;;2.10;;
68923;SDS011;55961;52.156;20.942;2023-07-22T08:23:33;5.32;;;2.45;;
68923;SDS011;55961;52.156;20.942;2023-07-22T08:25:59;4.50;;;1.80;;
68923;SDS011;55961;52.156;20.942;2023-07-22T08:28:25;4.63;;;2.77;;
68923;SDS011;55961;52.156;20.942;2023-07-22T08:30:55;5.88;;;2.50;;
68923;SDS011;55961;52.156;20.942;2023-07-22T08:33:22;5.57;;;2.50;;
68923;SDS011;55961;52.156;20.942;2023-07-22T08:35:50;5.68;;;2.08;;
68923;SDS011;55961;52.156;20.942;2023-07-22T08:38:16;7.37;;;2.60;;
68923;SDS011;55961;52.156;20.942;2023-07-22T08:40:43;5.47;;;2.00;;
68923;SDS011;55961;52.156;20.942;2023-07-22T08:43:09;8.00;;;2.72;;
68923;SDS011;55961;52.156;20.942;2023-07-22T08:45:38;5.50;;;2.88;;
68923;SDS011;55961;52.156;20.942;2023-07-22T08:48:06;5.15;;;2.50;;
68923;SDS011;55961;52.156;20.942;2023-07-22T08:50:46;4.90;;;2.63;;
68923;SDS011;55961;52.156;20.942;2023-07-22T08:53:20;5.28;;;3.00;;
68923;SDS011;55961;52.156;20.942;2023-07-22T08:55:47;5.50;;;2.97;;
68923;SDS011;55961;52.156;20.942;2023-07-22T08:58:13;5.65;;;2.33;;
68923;SDS011;55961;52.156;20.942;2023-07-22T09:00:39;6.97;;;2.22;;
68923;SDS011;55961;52.156;20.942;2023-07-22T09:03:06;5.03;;;2.70;;
68923;SDS011;55961;52.156;20.942;2023-07-22T09:05:32;4.00;;;2.20;;
68923;SDS011;55961;52.156;20.942;2023-07-22T09:07:59;5.80;;;2.45;;
68923;SDS011;55961;52.156;20.942;2023-07-22T09:10:28;4.90;;;2.58;;
68923;SDS011;55961;52.156;20.942;2023-07-22T09:12:54;4.22;;;2.47;;
68923;SDS011;55961;52.156;20.942;2023-07-22T09:15:20;5.23;;;2.53;;
68923;SDS011;55961;52.156;20.942;2023-07-22T09:17:48;4.85;;;2.45;;
68923;SDS011;55961;52.156;20.942;2023-07-22T09:20:15;6.95;;;2.75;;
68923;SDS011;55961;52.156;20.942;2023-07-22T09:22:44;6.10;;;2.78;;
68923;SDS011;55961;52.156;20.942;2023-07-22T09:25:13;7.35;;;2.78;;
68923;SDS011;55961;52.156;20.942;2023-07-22T09:27:41;3.93;;;2.60;;
68923;SDS011;55961;52.156;20.942;2023-07-22T09:30:20;5.13;;;2.95;;
68923;SDS011;55961;52.156;20.942;2023-07-22T09:32:50;6.07;;;3.80;;
68923;SDS011;55961;52.156;20.942;2023-07-22T09:35:17;5.38;;;3.13;;
68923;SDS011;55961;52.156;20.942;2023-07-22T09:37:43;5.70;;;2.70;;
68923;SDS011;55961;52.156;20.942;2023-07-22T09:40:25;6.03;;;3.00;;
68923;SDS011;55961;52.156;20.942;2023-07-22T09:42:53;5.55;;;2.67;;
68923;SDS011;55961;52.156;20.942;2023-07-22T09:45:23;5.45;;;2.80;;
68923;SDS011;55961;52.156;20.942;2023-07-22T09:47:51;5.03;;;2.40;;
68923;SDS011;55961;52.156;20.942;2023-07-22T09:50:19;6.68;;;2.45;;
68923;SDS011;55961;52.156;20.942;2023-07-22T09:52:55;4.13;;;2.27;;
68923;SDS011;55961;52.156;20.942;2023-07-22T09:55:24;5.30;;;3.10;;
68923;SDS011;55961;52.156;20.942;2023-07-22T09:57:54;6.35;;;2.55;;
68923;SDS011;55961;52.156;20.942;2023-07-22T10:00:23;4.43;;;2.35;;
68923;SDS011;55961;52.156;20.942;2023-07-22T10:02:51;4.57;;;2.38;;
68923;SDS011;55961;52.156;20.942;2023-07-22T10:05:18;6.33;;;2.03;;
68923;SDS011;55961;52.156;20.942;2023-07-22T10:07:45;5.15;;;2.00;;
68923;SDS011;55961;52.156;20.942;2023-07-22T10:10:15;4.57;;;1.98;;
68923;SDS011;55961;52.156;20.942;2023-07-22T10:13:02;4.07;;;2.30;;
68923;SDS011;55961;52.156;20.942;2023-07-22T10:15:30;4.35;;;1.70;;
68923;SDS011;55961;52.156;20.942;2023-07-22T10:18:03;3.50;;;1.80;;
68923;SDS011;55961;52.156;20.942;2023-07-22T10:20:32;3.95;;;1.77;;
68923;SDS011;55961;52.156;20.942;2023-07-22T10:23:01;3.70;;;2.08;;
68923;SDS011;55961;52.156;20.942;2023-07-22T10:25:29;5.45;;;1.77;;
68923;SDS011;55961;52.156;20.942;2023-07-22T10:27:55;3.25;;;1.73;;
68923;SDS011;55961;52.156;20.942;2023-07-22T10:30:22;6.30;;;1.83;;
68923;SDS011;55961;52.156;20.942;2023-07-22T10:32:48;3.80;;;1.98;;
68923;SDS011;55961;52.156;20.942;2023-07-22T10:35:34;4.07;;;2.03;;
68923;SDS011;55961;52.156;20.942;2023-07-22T10:38:14;3.90;;;2.17;;
68923;SDS011;55961;52.156;20.942;2023-07-22T10:40:47;3.33;;;1.97;;
68923;SDS011;55961;52.156;20.942;2023-07-22T10:43:17;3.80;;;1.88;;
68923;SDS011;55961;52.156;20.942;2023-07-22T10:45:50;3.10;;;2.08;;
68923;SDS011;55961;52.156;20.942;2023-07-22T10:48:17;4.15;;;1.70;;
68923;SDS011;55961;52.156;20.942;2023-07-22T10:50:47;3.97;;;1.90;;
68923;SDS011;55961;52.156;20.942;2023-07-22T10:56:32;4.32;;;2.15;;
68923;SDS011;55961;52.156;20.942;2023-07-22T11:01:24;2.85;;;1.63;;
68923;SDS011;55961;52.156;20.942;2023-07-22T11:06:39;3.23;;;1.70;;
68923;SDS011;55961;52.156;20.942;2023-07-22T11:09:05;3.35;;;2.10;;
68923;SDS011;55961;52.156;20.942;2023-07-22T11:11:35;3.30;;;1.90;;
68923;SDS011;55961;52.156;20.942;2023-07-22T11:14:15;3.42;;;1.90;;
68923;SDS011;55961;52.156;20.942;2023-07-22T11:16:47;3.70;;;1.95;;
68923;SDS011;55961;52.156;20.942;2023-07-22T11:19:14;5.77;;;2.07;;
68923;SDS011;55961;52.156;20.942;2023-07-22T11:21:44;6.30;;;2.00;;
68923;SDS011;55961;52.156;20.942;2023-07-22T11:24:11;4.13;;;1.95;;
68923;SDS011;55961;52.156;20.942;2023-07-22T11:26:38;5.40;;;1.95;;
68923;SDS011;55961;52.156;20.942;2023-07-22T11:29:05;5.25;;;2.17;;
68923;SDS011;55961;52.156;20.942;2023-07-22T11:31:32;4.10;;;1.73;;
68923;SDS011;55961;52.156;20.942;2023-07-22T11:33:59;2.70;;;1.60;;
68923;SDS011;55961;52.156;20.942;2023-07-22T11:36:26;5.63;;;2.17;;
68923;SDS011;55961;52.156;20.942;2023-07-22T11:38:52;4.82;;;1.98;;
68923;SDS011;55961;52.156;20.942;2023-07-22T11:41:20;4.78;;;2.17;;
68923;SDS011;55961;52.156;20.942;2023-07-22T11:43:46;4.63;;;2.10;;
68923;SDS011;55961;52.156;20.942;2023-07-22T11:46:13;5.03;;;2.22;;
68923;SDS011;55961;52.156;20.942;2023-07-22T11:48:38;6.68;;;2.35;;
68923;SDS011;55961;52.156;20.942;2023-07-22T11:51:06;3.92;;;2.25;;
68923;SDS011;55961;52.156;20.942;2023-07-22T11:53:32;3.27;;;1.63;;
68923;SDS011;55961;52.156;20.942;2023-07-22T11:55:58;3.38;;;1.98;;
68923;SDS011;55961;52.156;20.942;2023-07-22T11:58:25;5.25;;;2.58;;
68923;SDS011;55961;52.156;20.942;2023-07-22T12:01:10;3.85;;;2.08;;
68923;SDS011;55961;52.156;20.942;2023-07-22T12:03:36;4.97;;;2.40;;
68923;SDS011;55961;52.156;20.942;2023-07-22T12:06:08;5.40;;;2.20;;
68923;SDS011;55961;52.156;20.942;2023-07-22T12:08:35;4.30;;;2.55;;
68923;SDS011;55961;52.156;20.942;2023-07-22T12:11:01;6.20;;;1.83;;
68923;SDS011;55961;52.156;20.942;2023-07-22T12:13:29;3.35;;;2.42;;
68923;SDS011;55961;52.156;20.942;2023-07-22T12:16:02;3.73;;;2.20;;
68923;SDS011;55961;52.156;20.942;2023-07-22T12:18:45;3.92;;;1.90;;
68923;SDS011;55961;52.156;20.942;2023-07-22T12:21:15;4.45;;;2.00;;
68923;SDS011;55961;52.156;20.942;2023-07-22T12:23:42;4.80;;;2.22;;
68923;SDS011;55961;52.156;20.942;2023-07-22T12:26:08;4.43;;;1.83;;
68923;SDS011;55961;52.156;20.942;2023-07-22T12:28:34;3.27;;;1.77;;
68923;SDS011;55961;52.156;20.942;2023-07-22T12:31:00;3.80;;;1.95;;
68923;SDS011;55961;52.156;20.942;2023-07-22T12:33:26;4.55;;;2.30;;
68923;SDS011;55961;52.156;20.942;2023-07-22T12:35:55;4.00;;;1.80;;
68923;SDS011;55961;52.156;20.942;2023-07-22T12:38:22;3.70;;;1.77;;
68923;SDS011;55961;52.156;20.942;2023-07-22T12:40:48;5.30;;;2.50;;
68923;SDS011;55961;52.156;20.942;2023-07-22T12:43:15;4.15;;;2.33;;
68923;SDS011;55961;52.156;20.942;2023-07-22T12:45:46;4.07;;;2.50;;
68923;SDS011;55961;52.156;20.942;2023-07-22T12:48:12;4.63;;;2.20;;
68923;SDS011;55961;52.156;20.942;2023-07-22T12:50:38;4.10;;;2.15;;
68923;SDS011;55961;52.156;20.942;2023-07-22T12:53:05;4.22;;;2.00;;
68923;SDS011;55961;52.156;20.942;2023-07-22T12:55:30;4.30;;;2.03;;
68923;SDS011;55961;52.156;20.942;2023-07-22T12:57:57;4.90;;;1.88;;
68923;SDS011;55961;52.156;20.942;2023-07-22T13:00:22;5.33;;;2.27;;
68923;SDS011;55961;52.156;20.942;2023-07-22T13:02:49;4.70;;;2.00;;
68923;SDS011;55961;52.156;20.942;2023-07-22T13:05:15;4.60;;;1.75;;
68923;SDS011;55961;52.156;20.942;2023-07-22T13:07:41;5.17;;;1.80;;
68923;SDS011;55961;52.156;20.942;2023-07-22T13:10:06;4.00;;;1.75;;
68923;SDS011;55961;52.156;20.942;2023-07-22T13:12:36;4.63;;;1.70;;
68923;SDS011;55961;52.156;20.942;2023-07-22T13:15:03;4.55;;;2.00;;
68923;SDS011;55961;52.156;20.942;2023-07-22T13:17:30;3.97;;;1.80;;
68923;SDS011;55961;52.156;20.942;2023-07-22T13:19:57;3.25;;;1.70;;
68923;SDS011;55961;52.156;20.942;2023-07-22T13:22:23;5.22;;;2.20;;
68923;SDS011;55961;52.156;20.942;2023-07-22T13:24:49;3.22;;;1.55;;
68923;SDS011;55961;52.156;20.942;2023-07-22T13:27:15;4.07;;;1.80;;
68923;SDS011;55961;52.156;20.942;2023-07-22T13:29:41;5.10;;;2.10;;
68923;SDS011;55961;52.156;20.942;2023-07-22T13:32:11;4.22;;;2.00;;
68923;SDS011;55961;52.156;20.942;2023-07-22T13:34:36;3.63;;;1.80;;
68923;SDS011;55961;52.156;20.942;2023-07-22T13:37:03;3.30;;;2.10;;
68923;SDS011;55961;52.156;20.942;2023-07-22T13:39:29;4.88;;;2.30;;
68923;SDS011;55961;52.156;20.942;2023-07-22T13:41:55;4.18;;;2.17;;
68923;SDS011;55961;52.156;20.942;2023-07-22T13:44:21;4.47;;;1.90;;
68923;SDS011;55961;52.156;20.942;2023-07-22T13:46:47;6.17;;;2.60;;
68923;SDS011;55961;52.156;20.942;2023-07-22T13:49:15;3.90;;;2.13;;
68923;SDS011;55961;52.156;20.942;2023-07-22T13:51:43;4.28;;;2.10;;
68923;SDS011;55961;52.156;20.942;2023-07-22T13:54:08;4.35;;;2.22;;
68923;SDS011;55961;52.156;20.942;2023-07-22T13:56:34;4.03;;;1.80;;
68923;SDS011;55961;52.156;20.942;2023-07-22T13:59:00;4.50;;;2.10;;
68923;SDS011;55961;52.156;20.942;2023-07-22T14:01:35;3.80;;;2.20;;
68923;SDS011;55961;52.156;20.942;2023-07-22T14:04:01;7.07;;;2.30;;
68923;SDS011;55961;52.156;20.942;2023-07-22T14:06:27;4.93;;;2.23;;
68923;SDS011;55961;52.156;20.942;2023-07-22T14:08:54;4.10;;;2.20;;
68923;SDS011;55961;52.156;20.942;2023-07-22T14:11:20;4.75;;;2.00;;
68923;SDS011;55961;52.156;20.942;2023-07-22T14:13:46;6.28;;;2.35;;
68923;SDS011;55961;52.156;20.942;2023-07-22T14:16:12;5.47;;;2.67;;
68923;SDS011;55961;52.156;20.942;2023-07-22T14:18:37;3.90;;;2.30;;
68923;SDS011;55961;52.156;20.942;2023-07-22T14:21:03;4.38;;;2.20;;
68923;SDS011;55961;52.156;20.942;2023-07-22T14:23:29;3.80;;;2.40;;
68923;SDS011;55961;52.156;20.942;2023-07-22T14:25:55;5.78;;;2.30;;
68923;SDS011;55961;52.156;20.942;2023-07-22T14:28:21;4.63;;;2.22;;
68923;SDS011;55961;52.156;20.942;2023-07-22T14:30:48;4.65;;;2.28;;
68923;SDS011;55961;52.156;20.942;2023-07-22T14:33:14;4.50;;;2.67;;
68923;SDS011;55961;52.156;20.942;2023-07-22T14:35:40;4.28;;;2.15;;
68923;SDS011;55961;52.156;20.942;2023-07-22T14:38:06;6.63;;;2.03;;
68923;SDS011;55961;52.156;20.942;2023-07-22T14:40:32;4.07;;;2.10;;
68923;SDS011;55961;52.156;20.942;2023-07-22T14:42:58;4.10;;;2.40;;